sensor_id;sensor_type;location;lat;lon;timestamp;temperature;humidity
42715;DHT22;28351;51.480;5.706;2022-12-18T00:00:07;-5.20;99.90
42715;DHT22;28351;51.480;5.706;2022-12-18T00:02:45;-5.20;99.90
42715;DHT22;28351;51.480;5.706;2022-12-18T00:05:14;-5.30;99.90
42715;DHT22;28351;51.480;5.706;2022-12-18T00:08:09;-5.40;99.90
42715;DHT22;28351;51.480;5.706;2022-12-18T00:10:51;-5.40;99.90
42715;DHT22;28351;51.480;5.706;2022-12-18T00:13:23;-5.40;99.90
42715;DHT22;28351;51.480;5.706;2022-12-18T00:19:05;-5.50;99.90
42715;DHT22;28351;51.480;5.706;2022-12-18T00:21:43;-5.50;99.90
42715;DHT22;28351;51.480;5.706;2022-12-18T00:24:13;-5.60;99.90
42715;DHT22;28351;51.480;5.706;2022-12-18T00:26:44;-5.50;99.90
42715;DHT22;28351;51.480;5.706;2022-12-18T00:29:13;-5.60;99.90
42715;DHT22;28351;51.480;5.706;2022-12-18T00:32:03;-5.60;99.90
42715;DHT22;28351;51.480;5.706;2022-12-18T00:35:15;-5.60;99.90
42715;DHT22;28351;51.480;5.706;2022-12-18T00:37:52;-5.70;99.90
42715;DHT22;28351;51.480;5.706;2022-12-18T00:40:33;-5.70;99.90
42715;DHT22;28351;51.480;5.706;2022-12-18T00:43:04;-5.70;99.90
42715;DHT22;28351;51.480;5.706;2022-12-18T00:45:54;-5.70;99.90
42715;DHT22;28351;51.480;5.706;2022-12-18T00:48:25;-5.70;99.90
42715;DHT22;28351;51.480;5.706;2022-12-18T00:50:56;-5.80;99.90
42715;DHT22;28351;51.480;5.706;2022-12-18T00:53:25;-5.80;99.90
42715;DHT22;28351;51.480;5.706;2022-12-18T00:56:22;-5.90;99.90
42715;DHT22;28351;51.480;5.706;2022-12-18T00:58:52;-5.80;99.90
42715;DHT22;28351;51.480;5.706;2022-12-18T01:01:22;-5.90;99.90
42715;DHT22;28351;51.480;5.706;2022-12-18T01:04:03;-5.90;99.90
42715;DHT22;28351;51.480;5.706;2022-12-18T01:06:48;-5.90;99.90
42715;DHT22;28351;51.480;5.706;2022-12-18T01:09:36;-5.90;99.90
42715;DHT22;28351;51.480;5.706;2022-12-18T01:12:25;-5.80;99.90
42715;DHT22;28351;51.480;5.706;2022-12-18T01:14:59;-5.80;99.90
42715;DHT22;28351;51.480;5.706;2022-12-18T01:17:55;-5.80;99.90
42715;DHT22;28351;51.480;5.706;2022-12-18T01:20:42;-5.80;99.90
42715;DHT22;28351;51.480;5.706;2022-12-18T01:23:11;-5.90;99.90
42715;DHT22;28351;51.480;5.706;2022-12-18T01:25:38;-5.90;99.90
42715;DHT22;28351;51.480;5.706;2022-12-18T01:28:07;-6.00;99.90
42715;DHT22;28351;51.480;5.706;2022-12-18T01:30:54;-5.90;99.90
42715;DHT22;28351;51.480;5.706;2022-12-18T01:33:23;-6.00;99.90
42715;DHT22;28351;51.480;5.706;2022-12-18T01:35:51;-6.10;99.90
42715;DHT22;28351;51.480;5.706;2022-12-18T01:38:21;-6.10;99.90
42715;DHT22;28351;51.480;5.706;2022-12-18T01:40:48;-6.10;99.90
42715;DHT22;28351;51.480;5.706;2022-12-18T01:43:44;-6.10;99.90
42715;DHT22;28351;51.480;5.706;2022-12-18T01:46:22;-6.10;99.90
42715;DHT22;28351;51.480;5.706;2022-12-18T01:48:52;-6.20;99.90
42715;DHT22;28351;51.480;5.706;2022-12-18T01:51:19;-6.30;99.90
42715;DHT22;28351;51.480;5.706;2022-12-18T01:53:51;-6.30;99.90
42715;DHT22;28351;51.480;5.706;2022-12-18T01:59:43;-6.30;99.90
42715;DHT22;28351;51.480;5.706;2022-12-18T02:02:28;-6.30;99.90
42715;DHT22;28351;51.480;5.706;2022-12-18T02:05:07;-6.30;99.90
42715;DHT22;28351;51.480;5.706;2022-12-18T02:28:33;-6.50;99.90
42715;DHT22;28351;51.480;5.706;2022-12-18T02:34:15;-6.50;99.90
42715;DHT22;28351;51.480;5.706;2022-12-18T02:36:44;-6.50;99.90
42715;DHT22;28351;51.480;5.706;2022-12-18T02:39:12;-6.40;99.90
42715;DHT22;28351;51.480;5.706;2022-12-18T02:41:58;-6.40;99.90
42715;DHT22;28351;51.480;5.706;2022-12-18T02:44:48;-6.40;99.90
42715;DHT22;28351;51.480;5.706;2022-12-18T02:51:22;-6.40;99.90
42715;DHT22;28351;51.480;5.706;2022-12-18T02:53:58;-6.40;99.90
42715;DHT22;28351;51.480;5.706;2022-12-18T02:56:46;-6.40;99.90
42715;DHT22;28351;51.480;5.706;2022-12-18T02:59:41;-6.50;99.90
42715;DHT22;28351;51.480;5.706;2022-12-18T03:02:19;-6.50;99.90
42715;DHT22;28351;51.480;5.706;2022-12-18T03:05:03;-6.50;99.90
42715;DHT22;28351;51.480;5.706;2022-12-18T03:08:00;-6.50;99.90
42715;DHT22;28351;51.480;5.706;2022-12-18T03:10:32;-6.60;99.90
42715;DHT22;28351;51.480;5.706;2022-12-18T03:13:27;-6.50;99.90
42715;DHT22;28351;51.480;5.706;2022-12-18T03:15:56;-6.40;99.90
42715;DHT22;28351;51.480;5.706;2022-12-18T03:18:43;-6.30;99.90
42715;DHT22;28351;51.480;5.706;2022-12-18T03:21:14;-6.40;99.90
42715;DHT22;28351;51.480;5.706;2022-12-18T03:23:54;-6.30;99.90
42715;DHT22;28351;51.480;5.706;2022-12-18T03:26:23;-6.30;99.90
42715;DHT22;28351;51.480;5.706;2022-12-18T03:29:22;-6.30;99.90
42715;DHT22;28351;51.480;5.706;2022-12-18T03:31:54;-6.30;99.90
42715;DHT22;28351;51.480;5.706;2022-12-18T03:34:38;-6.20;99.90
42715;DHT22;28351;51.480;5.706;2022-12-18T03:37:06;-6.10;99.90
42715;DHT22;28351;51.480;5.706;2022-12-18T03:39:53;-6.20;99.90
42715;DHT22;28351;51.480;5.706;2022-12-18T03:42:44;-6.20;99.90
42715;DHT22;28351;51.480;5.706;2022-12-18T03:45:45;-6.20;99.90
42715;DHT22;28351;51.480;5.706;2022-12-18T03:51:18;-6.20;99.90
42715;DHT22;28351;51.480;5.706;2022-12-18T03:54:04;-6.10;99.90
42715;DHT22;28351;51.480;5.706;2022-12-18T03:56:51;-6.10;99.90
42715;DHT22;28351;51.480;5.706;2022-12-18T03:59:19;-6.00;99.90
42715;DHT22;28351;51.480;5.706;2022-12-18T04:01:49;-6.00;99.90
42715;DHT22;28351;51.480;5.706;2022-12-18T04:04:17;-6.10;99.90
42715;DHT22;28351;51.480;5.706;2022-12-18T04:06:52;-6.10;99.90
42715;DHT22;28351;51.480;5.706;2022-12-18T04:09:20;-6.10;99.90
42715;DHT22;28351;51.480;5.706;2022-12-18T04:11:47;-6.10;99.90
42715;DHT22;28351;51.480;5.706;2022-12-18T04:14:14;-6.10;99.90
42715;DHT22;28351;51.480;5.706;2022-12-18T04:17:03;-6.10;99.90
42715;DHT22;28351;51.480;5.706;2022-12-18T04:19:29;-6.10;99.90
42715;DHT22;28351;51.480;5.706;2022-12-18T04:22:05;-6.10;99.90
42715;DHT22;28351;51.480;5.706;2022-12-18T04:24:32;-6.10;99.90
42715;DHT22;28351;51.480;5.706;2022-12-18T04:26:59;-6.10;99.90
42715;DHT22;28351;51.480;5.706;2022-12-18T04:29:42;-6.00;99.90
42715;DHT22;28351;51.480;5.706;2022-12-18T04:32:18;-6.10;99.90
42715;DHT22;28351;51.480;5.706;2022-12-18T04:34:45;-6.00;99.90
42715;DHT22;28351;51.480;5.706;2022-12-18T04:37:12;-6.00;99.90
42715;DHT22;28351;51.480;5.706;2022-12-18T04:39:39;-6.10;99.90
42715;DHT22;28351;51.480;5.706;2022-12-18T04:42:11;-6.10;99.90
42715;DHT22;28351;51.480;5.706;2022-12-18T04:44:37;-6.00;99.90
42715;DHT22;28351;51.480;5.706;2022-12-18T04:47:03;-6.00;99.90
42715;DHT22;28351;51.480;5.706;2022-12-18T04:49:29;-6.10;99.90
42715;DHT22;28351;51.480;5.706;2022-12-18T04:51:54;-6.00;99.90
42715;DHT22;28351;51.480;5.706;2022-12-18T04:54:28;-6.00;99.90
42715;DHT22;28351;51.480;5.706;2022-12-18T04:56:57;-6.00;99.90
42715;DHT22;28351;51.480;5.706;2022-12-18T04:59:24;-6.00;99.90
42715;DHT22;28351;51.480;5.706;2022-12-18T05:01:49;-6.00;99.90
42715;DHT22;28351;51.480;5.706;2022-12-18T05:04:17;-6.00;99.90
42715;DHT22;28351;51.480;5.706;2022-12-18T05:06:42;-6.00;99.90
42715;DHT22;28351;51.480;5.706;2022-12-18T05:09:08;-6.10;99.90
42715;DHT22;28351;51.480;5.706;2022-12-18T05:11:36;-6.10;99.90
42715;DHT22;28351;51.480;5.706;2022-12-18T05:14:13;-6.10;99.90
42715;DHT22;28351;51.480;5.706;2022-12-18T05:16:40;-6.10;99.90
42715;DHT22;28351;51.480;5.706;2022-12-18T05:19:05;-6.10;99.90
42715;DHT22;28351;51.480;5.706;2022-12-18T05:21:49;-6.10;99.90
42715;DHT22;28351;51.480;5.706;2022-12-18T05:24:14;-6.20;99.90
42715;DHT22;28351;51.480;5.706;2022-12-18T05:26:40;-6.20;99.90
42715;DHT22;28351;51.480;5.706;2022-12-18T05:29:06;-6.20;99.90
42715;DHT22;28351;51.480;5.706;2022-12-18T05:31:40;-6.30;99.90
42715;DHT22;28351;51.480;5.706;2022-12-18T05:34:06;-6.30;99.90
42715;DHT22;28351;51.480;5.706;2022-12-18T05:36:32;-6.30;99.90
42715;DHT22;28351;51.480;5.706;2022-12-18T05:38:58;-6.40;99.90
42715;DHT22;28351;51.480;5.706;2022-12-18T05:41:23;-6.30;99.90
42715;DHT22;28351;51.480;5.706;2022-12-18T05:43:49;-6.30;99.90
42715;DHT22;28351;51.480;5.706;2022-12-18T05:46:16;-6.30;99.90
42715;DHT22;28351;51.480;5.706;2022-12-18T05:48:51;-6.30;99.90
42715;DHT22;28351;51.480;5.706;2022-12-18T05:51:19;-6.30;99.90
42715;DHT22;28351;51.480;5.706;2022-12-18T05:53:45;-6.20;99.90
42715;DHT22;28351;51.480;5.706;2022-12-18T05:56:14;-6.20;99.90
42715;DHT22;28351;51.480;5.706;2022-12-18T05:58:40;-6.10;99.90
42715;DHT22;28351;51.480;5.706;2022-12-18T06:01:18;-6.10;99.90
42715;DHT22;28351;51.480;5.706;2022-12-18T06:03:44;-6.00;99.90
42715;DHT22;28351;51.480;5.706;2022-12-18T06:06:19;-6.00;99.90
42715;DHT22;28351;51.480;5.706;2022-12-18T06:08:47;-6.00;99.90
42715;DHT22;28351;51.480;5.706;2022-12-18T06:11:28;-6.00;99.90
42715;DHT22;28351;51.480;5.706;2022-12-18T06:13:59;-5.90;99.90
42715;DHT22;28351;51.480;5.706;2022-12-18T06:16:28;-6.00;99.90
42715;DHT22;28351;51.480;5.706;2022-12-18T06:18:58;-5.90;99.90
42715;DHT22;28351;51.480;5.706;2022-12-18T06:21:24;-5.90;99.90
42715;DHT22;28351;51.480;5.706;2022-12-18T06:23:49;-6.00;99.90
42715;DHT22;28351;51.480;5.706;2022-12-18T06:26:15;-5.90;99.90
42715;DHT22;28351;51.480;5.706;2022-12-18T06:28:47;-6.00;99.90
42715;DHT22;28351;51.480;5.706;2022-12-18T06:31:15;-6.00;99.90
42715;DHT22;28351;51.480;5.706;2022-12-18T06:33:47;-6.00;99.90
42715;DHT22;28351;51.480;5.706;2022-12-18T06:36:19;-6.10;99.90
42715;DHT22;28351;51.480;5.706;2022-12-18T06:38:46;-6.10;99.90
42715;DHT22;28351;51.480;5.706;2022-12-18T06:41:18;-6.10;99.90
42715;DHT22;28351;51.480;5.706;2022-12-18T06:43:44;-6.10;99.90
42715;DHT22;28351;51.480;5.706;2022-12-18T06:46:10;-6.10;99.90
42715;DHT22;28351;51.480;5.706;2022-12-18T06:48:36;-6.10;99.90
42715;DHT22;28351;51.480;5.706;2022-12-18T06:51:02;-6.00;99.90
42715;DHT22;28351;51.480;5.706;2022-12-18T06:53:28;-6.00;99.90
42715;DHT22;28351;51.480;5.706;2022-12-18T06:56:09;-6.00;99.90
42715;DHT22;28351;51.480;5.706;2022-12-18T06:58:38;-6.00;99.90
42715;DHT22;28351;51.480;5.706;2022-12-18T07:01:08;-6.00;99.90
42715;DHT22;28351;51.480;5.706;2022-12-18T07:03:36;-6.10;99.90
42715;DHT22;28351;51.480;5.706;2022-12-18T07:06:02;-6.10;99.90
42715;DHT22;28351;51.480;5.706;2022-12-18T07:08:30;-6.10;99.90
42715;DHT22;28351;51.480;5.706;2022-12-18T07:10:55;-6.10;99.90
42715;DHT22;28351;51.480;5.706;2022-12-18T07:13:30;-6.20;99.90
42715;DHT22;28351;51.480;5.706;2022-12-18T07:16:07;-6.20;99.90
42715;DHT22;28351;51.480;5.706;2022-12-18T07:18:33;-6.30;99.90
42715;DHT22;28351;51.480;5.706;2022-12-18T07:21:09;-6.30;99.90
42715;DHT22;28351;51.480;5.706;2022-12-18T07:23:36;-6.30;99.90
42715;DHT22;28351;51.480;5.706;2022-12-18T07:26:05;-6.30;99.90
42715;DHT22;28351;51.480;5.706;2022-12-18T07:28:32;-6.40;99.90
42715;DHT22;28351;51.480;5.706;2022-12-18T07:31:01;-6.40;99.90
42715;DHT22;28351;51.480;5.706;2022-12-18T07:33:27;-6.40;99.90
42715;DHT22;28351;51.480;5.706;2022-12-18T07:35:53;-6.40;99.90
42715;DHT22;28351;51.480;5.706;2022-12-18T07:38:20;-6.40;99.90
42715;DHT22;28351;51.480;5.706;2022-12-18T07:40:46;-6.30;99.90
42715;DHT22;28351;51.480;5.706;2022-12-18T07:43:12;-6.30;99.90
42715;DHT22;28351;51.480;5.706;2022-12-18T07:45:44;-6.30;99.90
42715;DHT22;28351;51.480;5.706;2022-12-18T07:48:12;-6.30;99.90
42715;DHT22;28351;51.480;5.706;2022-12-18T07:50:38;-6.20;99.90
42715;DHT22;28351;51.480;5.706;2022-12-18T07:59:51;-5.90;99.90
42715;DHT22;28351;51.480;5.706;2022-12-18T08:02:20;-5.90;99.90
42715;DHT22;28351;51.480;5.706;2022-12-18T08:04:46;-5.90;99.90
42715;DHT22;28351;51.480;5.706;2022-12-18T08:11:05;-5.70;99.90
42715;DHT22;28351;51.480;5.706;2022-12-18T08:13:31;-5.60;99.90
42715;DHT22;28351;51.480;5.706;2022-12-18T08:16:26;-5.40;99.90
42715;DHT22;28351;51.480;5.706;2022-12-18T08:18:52;-5.40;99.90
42715;DHT22;28351;51.480;5.706;2022-12-18T08:21:25;-5.30;99.90
42715;DHT22;28351;51.480;5.706;2022-12-18T08:23:53;-5.20;99.90
42715;DHT22;28351;51.480;5.706;2022-12-18T08:26:20;-5.10;99.90
42715;DHT22;28351;51.480;5.706;2022-12-18T08:28:46;-5.10;99.90
42715;DHT22;28351;51.480;5.706;2022-12-18T08:31:12;-5.00;99.90
42715;DHT22;28351;51.480;5.706;2022-12-18T08:33:40;-4.90;99.90
42715;DHT22;28351;51.480;5.706;2022-12-18T08:36:08;-4.80;99.90
42715;DHT22;28351;51.480;5.706;2022-12-18T08:38:57;-4.80;99.90
42715;DHT22;28351;51.480;5.706;2022-12-18T08:41:23;-4.70;99.90
42715;DHT22;28351;51.480;5.706;2022-12-18T08:43:49;-4.70;99.90
42715;DHT22;28351;51.480;5.706;2022-12-18T08:46:36;-4.60;99.90
42715;DHT22;28351;51.480;5.706;2022-12-18T08:49:02;-4.60;99.90
42715;DHT22;28351;51.480;5.706;2022-12-18T08:51:28;-4.50;99.90
42715;DHT22;28351;51.480;5.706;2022-12-18T08:53:55;-4.40;99.90
42715;DHT22;28351;51.480;5.706;2022-12-18T08:56:20;-4.40;99.90
42715;DHT22;28351;51.480;5.706;2022-12-18T08:58:46;-4.30;99.90
42715;DHT22;28351;51.480;5.706;2022-12-18T09:01:19;-4.30;99.90
42715;DHT22;28351;51.480;5.706;2022-12-18T09:03:45;-4.20;99.90
42715;DHT22;28351;51.480;5.706;2022-12-18T09:06:14;-4.10;99.90
42715;DHT22;28351;51.480;5.706;2022-12-18T09:08:41;-4.00;99.90
42715;DHT22;28351;51.480;5.706;2022-12-18T09:11:22;-3.90;99.90
42715;DHT22;28351;51.480;5.706;2022-12-18T09:14:01;-3.80;99.90
42715;DHT22;28351;51.480;5.706;2022-12-18T09:16:32;-3.70;99.90
42715;DHT22;28351;51.480;5.706;2022-12-18T09:19:01;-3.60;99.90
42715;DHT22;28351;51.480;5.706;2022-12-18T09:21:29;-3.50;99.90
42715;DHT22;28351;51.480;5.706;2022-12-18T09:23:55;-3.50;99.90
42715;DHT22;28351;51.480;5.706;2022-12-18T09:26:22;-3.40;99.90
42715;DHT22;28351;51.480;5.706;2022-12-18T09:28:57;-3.30;99.90
42715;DHT22;28351;51.480;5.706;2022-12-18T09:31:51;-3.30;99.90
42715;DHT22;28351;51.480;5.706;2022-12-18T09:34:17;-3.20;99.90
42715;DHT22;28351;51.480;5.706;2022-12-18T09:36:43;-3.10;99.90
42715;DHT22;28351;51.480;5.706;2022-12-18T09:39:09;-3.10;99.90
42715;DHT22;28351;51.480;5.706;2022-12-18T09:41:54;-3.10;99.90
42715;DHT22;28351;51.480;5.706;2022-12-18T09:44:39;-3.00;99.90
42715;DHT22;28351;51.480;5.706;2022-12-18T09:47:16;-3.00;99.90
42715;DHT22;28351;51.480;5.706;2022-12-18T09:49:45;-2.90;99.90
42715;DHT22;28351;51.480;5.706;2022-12-18T09:54:55;-2.70;99.90
42715;DHT22;28351;51.480;5.706;2022-12-18T09:57:24;-2.70;99.90
42715;DHT22;28351;51.480;5.706;2022-12-18T09:59:59;-2.60;99.90
42715;DHT22;28351;51.480;5.706;2022-12-18T10:02:34;-2.50;99.90
42715;DHT22;28351;51.480;5.706;2022-12-18T10:05:15;-2.40;99.90
42715;DHT22;28351;51.480;5.706;2022-12-18T10:14:23;-2.10;99.90
42715;DHT22;28351;51.480;5.706;2022-12-18T10:23:29;-1.90;99.90
42715;DHT22;28351;51.480;5.706;2022-12-18T10:26:44;-1.80;99.90
42715;DHT22;28351;51.480;5.706;2022-12-18T10:29:24;-1.70;99.90
42715;DHT22;28351;51.480;5.706;2022-12-18T10:34:56;-1.70;99.90
42715;DHT22;28351;51.480;5.706;2022-12-18T10:37:38;-1.60;99.90
42715;DHT22;28351;51.480;5.706;2022-12-18T10:40:23;-1.50;99.90
42715;DHT22;28351;51.480;5.706;2022-12-18T10:43:13;-1.40;99.90
42715;DHT22;28351;51.480;5.706;2022-12-18T10:45:41;-1.40;99.90
42715;DHT22;28351;51.480;5.706;2022-12-18T10:48:21;-1.40;99.90
42715;DHT22;28351;51.480;5.706;2022-12-18T10:50:49;-1.20;99.90
42715;DHT22;28351;51.480;5.706;2022-12-18T10:53:24;-1.20;99.90
42715;DHT22;28351;51.480;5.706;2022-12-18T10:56:07;-1.20;99.90
42715;DHT22;28351;51.480;5.706;2022-12-18T10:59:05;-1.20;99.90
42715;DHT22;28351;51.480;5.706;2022-12-18T11:04:37;-1.00;99.90
42715;DHT22;28351;51.480;5.706;2022-12-18T11:07:14;-0.90;99.90
42715;DHT22;28351;51.480;5.706;2022-12-18T11:09:40;-0.90;99.90
42715;DHT22;28351;51.480;5.706;2022-12-18T11:12:19;-0.90;99.90
42715;DHT22;28351;51.480;5.706;2022-12-18T11:17:40;-0.90;99.90
42715;DHT22;28351;51.480;5.706;2022-12-18T11:23:31;-1.00;99.90
42715;DHT22;28351;51.480;5.706;2022-12-18T11:25:59;-0.90;99.90
42715;DHT22;28351;51.480;5.706;2022-12-18T11:36:18;-0.80;99.90
42715;DHT22;28351;51.480;5.706;2022-12-18T11:38:49;-0.80;99.90
42715;DHT22;28351;51.480;5.706;2022-12-18T11:41:41;-0.70;99.90
42715;DHT22;28351;51.480;5.706;2022-12-18T11:44:28;-0.60;99.90
42715;DHT22;28351;51.480;5.706;2022-12-18T11:47:05;-0.60;99.90
42715;DHT22;28351;51.480;5.706;2022-12-18T11:49:35;-0.50;99.90
42715;DHT22;28351;51.480;5.706;2022-12-18T11:52:23;-0.60;99.90
42715;DHT22;28351;51.480;5.706;2022-12-18T11:54:56;-0.50;99.90
42715;DHT22;28351;51.480;5.706;2022-12-18T12:00:19;-0.40;99.90
42715;DHT22;28351;51.480;5.706;2022-12-18T12:03:21;-0.40;99.90
42715;DHT22;28351;51.480;5.706;2022-12-18T12:08:34;-0.30;99.90
42715;DHT22;28351;51.480;5.706;2022-12-18T12:39:01;-0.20;99.90
42715;DHT22;28351;51.480;5.706;2022-12-18T12:41:32;-0.20;99.90
42715;DHT22;28351;51.480;5.706;2022-12-18T12:44:24;-0.10;99.90
42715;DHT22;28351;51.480;5.706;2022-12-18T12:46:52;0.00;99.90
42715;DHT22;28351;51.480;5.706;2022-12-18T12:49:21;0.00;99.90
42715;DHT22;28351;51.480;5.706;2022-12-18T12:52:12;0.00;99.90
42715;DHT22;28351;51.480;5.706;2022-12-18T12:54:40;0.00;99.90
42715;DHT22;28351;51.480;5.706;2022-12-18T12:57:43;0.10;99.90
42715;DHT22;28351;51.480;5.706;2022-12-18T13:03:00;0.10;99.90
42715;DHT22;28351;51.480;5.706;2022-12-18T13:05:46;0.20;99.90
42715;DHT22;28351;51.480;5.706;2022-12-18T13:08:28;0.20;99.90
42715;DHT22;28351;51.480;5.706;2022-12-18T13:10:56;0.20;99.90
42715;DHT22;28351;51.480;5.706;2022-12-18T13:13:53;0.20;99.90
42715;DHT22;28351;51.480;5.706;2022-12-18T13:16:21;0.10;99.90
42715;DHT22;28351;51.480;5.706;2022-12-18T13:18:55;0.10;99.90
42715;DHT22;28351;51.480;5.706;2022-12-18T13:21:28;0.10;99.90
42715;DHT22;28351;51.480;5.706;2022-12-18T13:23:54;0.10;99.90
42715;DHT22;28351;51.480;5.706;2022-12-18T13:33:48;0.00;99.90
42715;DHT22;28351;51.480;5.706;2022-12-18T13:36:30;0.00;99.90
42715;DHT22;28351;51.480;5.706;2022-12-18T13:49:43;0.00;99.90
42715;DHT22;28351;51.480;5.706;2022-12-18T13:55:51;0.00;99.90
42715;DHT22;28351;51.480;5.706;2022-12-18T13:58:43;0.00;99.90
42715;DHT22;28351;51.480;5.706;2022-12-18T14:04:36;0.00;99.90
42715;DHT22;28351;51.480;5.706;2022-12-18T14:10:37;0.00;99.90
42715;DHT22;28351;51.480;5.706;2022-12-18T14:13:19;0.00;99.90
42715;DHT22;28351;51.480;5.706;2022-12-18T14:16:11;0.00;99.90
42715;DHT22;28351;51.480;5.706;2022-12-18T14:19:23;0.00;99.90
42715;DHT22;28351;51.480;5.706;2022-12-18T14:21:50;0.10;99.90
42715;DHT22;28351;51.480;5.706;2022-12-18T14:24:21;0.10;99.90
42715;DHT22;28351;51.480;5.706;2022-12-18T14:27:20;0.10;99.90
42715;DHT22;28351;51.480;5.706;2022-12-18T14:29:46;0.10;99.90
42715;DHT22;28351;51.480;5.706;2022-12-18T14:32:22;0.10;99.90
42715;DHT22;28351;51.480;5.706;2022-12-18T14:34:52;0.10;99.90
42715;DHT22;28351;51.480;5.706;2022-12-18T14:37:26;0.00;99.90
42715;DHT22;28351;51.480;5.706;2022-12-18T14:39:57;0.10;99.90
42715;DHT22;28351;51.480;5.706;2022-12-18T14:42:23;0.00;99.90
42715;DHT22;28351;51.480;5.706;2022-12-18T14:48:51;-0.10;99.90
42715;DHT22;28351;51.480;5.706;2022-12-18T14:54:31;-0.10;99.90
42715;DHT22;28351;51.480;5.706;2022-12-18T14:57:36;-0.10;99.90
42715;DHT22;28351;51.480;5.706;2022-12-18T15:03:45;-0.10;99.90
42715;DHT22;28351;51.480;5.706;2022-12-18T15:06:28;-0.10;99.90
42715;DHT22;28351;51.480;5.706;2022-12-18T15:08:55;-0.10;99.90
42715;DHT22;28351;51.480;5.706;2022-12-18T15:11:42;-0.10;99.90
42715;DHT22;28351;51.480;5.706;2022-12-18T15:20:27;-0.10;99.90
42715;DHT22;28351;51.480;5.706;2022-12-18T15:22:55;-0.10;99.90
42715;DHT22;28351;51.480;5.706;2022-12-18T15:28:54;-0.10;99.90
42715;DHT22;28351;51.480;5.706;2022-12-18T15:31:33;-0.10;99.90
42715;DHT22;28351;51.480;5.706;2022-12-18T15:34:08;-0.10;99.90
42715;DHT22;28351;51.480;5.706;2022-12-18T15:43:31;-0.10;99.90
42715;DHT22;28351;51.480;5.706;2022-12-18T15:49:58;-0.10;99.90
42715;DHT22;28351;51.480;5.706;2022-12-18T16:02:46;-0.10;99.90
42715;DHT22;28351;51.480;5.706;2022-12-18T16:05:17;0.00;99.90
42715;DHT22;28351;51.480;5.706;2022-12-18T16:08:07;0.00;99.90
42715;DHT22;28351;51.480;5.706;2022-12-18T16:10:35;0.00;99.90
42715;DHT22;28351;51.480;5.706;2022-12-18T16:13:02;0.00;99.90
42715;DHT22;28351;51.480;5.706;2022-12-18T16:15:37;0.00;99.90
42715;DHT22;28351;51.480;5.706;2022-12-18T16:18:03;0.00;99.90
42715;DHT22;28351;51.480;5.706;2022-12-18T16:20:29;0.00;99.90
42715;DHT22;28351;51.480;5.706;2022-12-18T16:22:54;0.00;99.90
42715;DHT22;28351;51.480;5.706;2022-12-18T16:25:28;0.00;99.90
42715;DHT22;28351;51.480;5.706;2022-12-18T16:27:54;0.00;99.90
42715;DHT22;28351;51.480;5.706;2022-12-18T16:30:26;0.00;99.90
42715;DHT22;28351;51.480;5.706;2022-12-18T16:32:53;0.00;99.90
42715;DHT22;28351;51.480;5.706;2022-12-18T16:35:19;0.00;99.90
42715;DHT22;28351;51.480;5.706;2022-12-18T16:37:54;0.00;99.90
42715;DHT22;28351;51.480;5.706;2022-12-18T16:40:20;0.00;99.90
42715;DHT22;28351;51.480;5.706;2022-12-18T16:42:47;0.00;99.90
42715;DHT22;28351;51.480;5.706;2022-12-18T16:45:16;0.00;99.90
42715;DHT22;28351;51.480;5.706;2022-12-18T16:47:42;0.10;99.90
42715;DHT22;28351;51.480;5.706;2022-12-18T16:50:09;0.10;99.90
42715;DHT22;28351;51.480;5.706;2022-12-18T16:52:35;0.00;99.90
42715;DHT22;28351;51.480;5.706;2022-12-18T16:55:01;0.00;99.90
42715;DHT22;28351;51.480;5.706;2022-12-18T16:57:27;0.00;99.90
42715;DHT22;28351;51.480;5.706;2022-12-18T16:59:52;0.00;99.90
42715;DHT22;28351;51.480;5.706;2022-12-18T17:02:24;0.00;99.90
42715;DHT22;28351;51.480;5.706;2022-12-18T17:04:55;0.00;99.90
42715;DHT22;28351;51.480;5.706;2022-12-18T17:07:22;0.00;99.90
42715;DHT22;28351;51.480;5.706;2022-12-18T17:09:48;0.00;99.90
42715;DHT22;28351;51.480;5.706;2022-12-18T17:12:15;0.00;99.90
42715;DHT22;28351;51.480;5.706;2022-12-18T17:17:26;0.00;99.90
42715;DHT22;28351;51.480;5.706;2022-12-18T17:19:54;0.00;99.90
42715;DHT22;28351;51.480;5.706;2022-12-18T17:22:23;0.00;99.90
42715;DHT22;28351;51.480;5.706;2022-12-18T17:24:48;0.00;99.90
42715;DHT22;28351;51.480;5.706;2022-12-18T17:27:14;0.00;99.90
42715;DHT22;28351;51.480;5.706;2022-12-18T17:29:40;-0.10;99.90
42715;DHT22;28351;51.480;5.706;2022-12-18T17:32:11;0.00;99.90
42715;DHT22;28351;51.480;5.706;2022-12-18T17:34:36;-0.10;99.90
42715;DHT22;28351;51.480;5.706;2022-12-18T17:37:02;0.00;99.90
42715;DHT22;28351;51.480;5.706;2022-12-18T17:39:27;0.00;99.90
42715;DHT22;28351;51.480;5.706;2022-12-18T17:41:57;0.00;99.90
42715;DHT22;28351;51.480;5.706;2022-12-18T17:44:23;0.00;99.90
42715;DHT22;28351;51.480;5.706;2022-12-18T17:46:58;0.00;99.90
42715;DHT22;28351;51.480;5.706;2022-12-18T17:52:01;0.00;99.90
42715;DHT22;28351;51.480;5.706;2022-12-18T17:54:28;0.10;99.90
42715;DHT22;28351;51.480;5.706;2022-12-18T17:56:54;0.00;99.90
42715;DHT22;28351;51.480;5.706;2022-12-18T17:59:20;0.00;99.90
42715;DHT22;28351;51.480;5.706;2022-12-18T18:01:47;0.00;99.90
42715;DHT22;28351;51.480;5.706;2022-12-18T18:04:13;0.10;99.90
42715;DHT22;28351;51.480;5.706;2022-12-18T18:06:39;0.10;99.90
42715;DHT22;28351;51.480;5.706;2022-12-18T18:09:05;0.10;99.90
42715;DHT22;28351;51.480;5.706;2022-12-18T18:11:30;0.00;99.90
42715;DHT22;28351;51.480;5.706;2022-12-18T18:14:17;0.10;99.90
42715;DHT22;28351;51.480;5.706;2022-12-18T18:16:46;0.10;99.90
42715;DHT22;28351;51.480;5.706;2022-12-18T18:19:16;0.00;99.90
42715;DHT22;28351;51.480;5.706;2022-12-18T18:21:43;0.10;99.90
42715;DHT22;28351;51.480;5.706;2022-12-18T18:24:11;0.10;99.90
42715;DHT22;28351;51.480;5.706;2022-12-18T18:26:38;0.10;99.90
42715;DHT22;28351;51.480;5.706;2022-12-18T18:29:05;0.10;99.90
42715;DHT22;28351;51.480;5.706;2022-12-18T18:31:34;0.10;99.90
42715;DHT22;28351;51.480;5.706;2022-12-18T18:34:02;0.10;99.90
42715;DHT22;28351;51.480;5.706;2022-12-18T18:36:28;0.10;99.90
42715;DHT22;28351;51.480;5.706;2022-12-18T18:38:54;0.10;99.90
42715;DHT22;28351;51.480;5.706;2022-12-18T18:41:22;0.10;99.90
42715;DHT22;28351;51.480;5.706;2022-12-18T18:43:53;0.10;99.90
42715;DHT22;28351;51.480;5.706;2022-12-18T18:46:20;0.10;99.90
42715;DHT22;28351;51.480;5.706;2022-12-18T18:48:45;0.20;99.90
42715;DHT22;28351;51.480;5.706;2022-12-18T18:51:13;0.10;99.90
42715;DHT22;28351;51.480;5.706;2022-12-18T18:53:41;0.10;99.90
42715;DHT22;28351;51.480;5.706;2022-12-18T18:56:08;0.20;99.90
42715;DHT22;28351;51.480;5.706;2022-12-18T18:58:35;0.20;99.90
42715;DHT22;28351;51.480;5.706;2022-12-18T19:01:04;0.20;99.90
42715;DHT22;28351;51.480;5.706;2022-12-18T19:03:30;0.20;99.90
42715;DHT22;28351;51.480;5.706;2022-12-18T19:05:57;0.20;99.90
42715;DHT22;28351;51.480;5.706;2022-12-18T19:08:28;0.20;99.90
42715;DHT22;28351;51.480;5.706;2022-12-18T19:11:05;0.30;99.90
42715;DHT22;28351;51.480;5.706;2022-12-18T19:16:52;0.20;99.90
42715;DHT22;28351;51.480;5.706;2022-12-18T19:19:38;0.30;99.90
42715;DHT22;28351;51.480;5.706;2022-12-18T19:22:03;0.30;99.90
42715;DHT22;28351;51.480;5.706;2022-12-18T19:24:30;0.30;99.90
42715;DHT22;28351;51.480;5.706;2022-12-18T19:26:56;0.30;99.90
42715;DHT22;28351;51.480;5.706;2022-12-18T19:29:22;0.30;99.90